createdAt,value
2022-08-10T00:03:02.690Z,17.40
2022-08-10T00:05:43.403Z,17.30
2022-08-10T00:08:23.793Z,17.30
2022-08-10T00:10:55.773Z,17.20
2022-08-10T00:13:24.506Z,17.20
2022-08-10T00:15:55.036Z,17.20
2022-08-10T00:18:35.106Z,17.10
2022-08-10T00:21:07.828Z,17.20
2022-08-10T00:23:36.303Z,17.00
2022-08-10T00:26:04.592Z,16.80
2022-08-10T00:28:31.438Z,17.00
2022-08-10T00:30:58.437Z,17.00
2022-08-10T00:33:25.535Z,16.90
2022-08-10T00:35:52.402Z,16.90
2022-08-10T00:38:19.292Z,16.90
2022-08-10T00:40:46.253Z,16.80
2022-08-10T00:43:13.065Z,16.80
2022-08-10T00:45:40.119Z,16.80
2022-08-10T00:48:07.171Z,16.70
2022-08-10T00:50:34.642Z,16.70
2022-08-10T00:53:01.994Z,16.60
2022-08-10T00:55:28.867Z,16.70
2022-08-10T00:57:56.607Z,16.70
2022-08-10T01:00:24.318Z,16.60
2022-08-10T01:02:51.182Z,16.80
2022-08-10T01:05:20.450Z,16.60
2022-08-10T01:08:13.431Z,16.50
2022-08-10T01:10:42.958Z,16.60
2022-08-10T01:13:26.607Z,16.50
2022-08-10T01:16:21.707Z,16.40
2022-08-10T01:19:10.982Z,16.40
2022-08-10T01:22:18.682Z,16.70
2022-08-10T01:24:45.539Z,16.40
2022-08-10T01:27:34.111Z,16.40
2022-08-10T01:30:10.681Z,16.30
2022-08-10T01:32:42.058Z,16.30
2022-08-10T01:35:31.636Z,16.20
2022-08-10T01:38:04.231Z,16.20
2022-08-10T01:40:34.644Z,16.20
2022-08-10T01:43:07.927Z,16.10
2022-08-10T01:45:45.480Z,16.30
2022-08-10T01:48:31.951Z,16.10
2022-08-10T01:51:14.805Z,16.00
2022-08-10T01:53:47.186Z,16.00
2022-08-10T01:56:17.072Z,15.80
2022-08-10T01:58:46.393Z,15.90
2022-08-10T02:01:17.472Z,15.80
2022-08-10T02:04:03.979Z,15.80
2022-08-10T02:06:43.867Z,15.80
2022-08-10T02:09:15.360Z,15.80
2022-08-10T02:12:06.827Z,15.80
2022-08-10T02:14:34.737Z,15.70
2022-08-10T02:17:05.403Z,15.70
2022-08-10T02:19:35.397Z,15.70
2022-08-10T02:22:38.326Z,15.50
2022-08-10T02:24:50.823Z,15.70
2022-08-10T02:27:21.089Z,15.60
2022-08-10T02:29:49.389Z,15.60
2022-08-10T02:32:34.030Z,15.50
2022-08-10T02:35:07.055Z,15.60
2022-08-10T02:37:37.418Z,15.60
2022-08-10T02:40:04.926Z,15.40
2022-08-10T02:45:20.851Z,15.50
2022-08-10T02:45:33.849Z,15.50
2022-08-10T02:48:07.125Z,15.50
2022-08-10T02:50:36.053Z,15.50
2022-08-10T02:53:55.473Z,15.60
2022-08-10T02:56:51.552Z,15.40
2022-08-10T02:59:40.092Z,15.40
2022-08-10T03:02:11.939Z,15.40
2022-08-10T03:04:56.161Z,15.50
2022-08-10T03:07:42.840Z,15.30
2022-08-10T03:10:19.813Z,15.40
2022-08-10T03:12:51.764Z,15.50
2022-08-10T03:15:20.494Z,15.20
2022-08-10T03:17:57.794Z,15.40
2022-08-10T03:20:37.019Z,15.20
2022-08-10T03:23:10.293Z,15.20
2022-08-10T03:25:38.139Z,15.20
2022-08-10T03:28:05.735Z,15.20
2022-08-10T03:30:34.514Z,15.10
2022-08-10T03:33:04.223Z,15.00
2022-08-10T03:35:31.637Z,15.40
2022-08-10T03:38:00.562Z,15.20
2022-08-10T03:40:45.158Z,15.20
2022-08-10T03:43:19.219Z,15.20
2022-08-10T03:45:55.251Z,15.40
2022-08-10T03:48:32.348Z,15.10
2022-08-10T03:51:15.887Z,15.10
2022-08-10T03:54:05.735Z,15.10
2022-08-10T03:56:32.849Z,14.90
2022-08-10T03:59:01.367Z,15.00
2022-08-10T04:02:45.460Z,15.00
2022-08-10T04:04:23.288Z,14.80
2022-08-10T04:06:56.188Z,14.90
2022-08-10T04:09:43.330Z,15.00
2022-08-10T04:12:12.975Z,14.90
2022-08-10T04:14:51.234Z,14.90
2022-08-10T04:18:01.359Z,14.90
2022-08-10T04:20:20.474Z,14.90
2022-08-10T04:22:51.252Z,14.80
2022-08-10T04:25:19.359Z,14.90
2022-08-10T04:27:46.861Z,14.90
2022-08-10T04:30:14.125Z,14.90
2022-08-10T04:32:42.274Z,14.90
2022-08-10T04:35:12.088Z,15.10
2022-08-10T04:37:43.347Z,14.90
2022-08-10T04:40:28.638Z,14.90
2022-08-10T04:43:01.253Z,15.00
2022-08-10T04:45:50.524Z,14.90
2022-08-10T04:48:41.308Z,15.10
2022-08-10T04:51:03.641Z,14.90
2022-08-10T04:53:31.857Z,14.90
2022-08-10T04:55:58.578Z,14.90
2022-08-10T04:58:25.348Z,14.90
2022-08-10T05:00:52.097Z,15.10
2022-08-10T05:03:18.845Z,15.10
2022-08-10T05:05:46.131Z,15.00
2022-08-10T05:08:17.767Z,15.30
2022-08-10T05:10:44.527Z,15.10
2022-08-10T05:13:11.279Z,15.10
2022-08-10T05:15:38.171Z,15.20
2022-08-10T05:18:09.500Z,15.20
2022-08-10T05:20:38.498Z,15.30
2022-08-10T05:23:05.562Z,15.30
2022-08-10T05:25:33.004Z,15.30
2022-08-10T05:28:06.493Z,15.30
2022-08-10T05:30:34.331Z,15.50
2022-08-10T05:33:04.995Z,15.60
2022-08-10T05:35:55.304Z,15.70
2022-08-10T05:38:25.545Z,15.70
2022-08-10T05:40:52.593Z,15.70
2022-08-10T05:43:21.700Z,15.70
2022-08-10T05:46:17.477Z,15.90
2022-08-10T05:48:54.646Z,16.00
2022-08-10T05:51:26.251Z,16.00
2022-08-10T05:54:02.764Z,16.00
2022-08-10T05:56:55.678Z,16.00
2022-08-10T06:00:31.067Z,16.10
2022-08-10T06:02:32.923Z,16.30
2022-08-10T06:05:03.730Z,16.30
2022-08-10T06:07:31.047Z,16.80
2022-08-10T06:10:00.780Z,17.70
2022-08-10T06:17:38.300Z,20.90
2022-08-10T06:20:06.275Z,22.10
2022-08-10T06:22:33.497Z,23.10
2022-08-10T06:27:51.747Z,24.60
2022-08-10T06:30:20.922Z,25.10
2022-08-10T06:35:19.935Z,26.00
2022-08-10T06:37:51.322Z,26.40
2022-08-10T06:40:19.940Z,27.00
2022-08-10T06:45:22.443Z,27.60
2022-08-10T06:47:55.816Z,27.90
2022-08-10T06:50:59.082Z,28.00
2022-08-10T06:53:54.151Z,28.20
2022-08-10T06:56:37.707Z,28.30
2022-08-10T06:59:21.115Z,28.70
2022-08-10T07:01:57.457Z,29.10
2022-08-10T07:04:34.056Z,29.70
2022-08-10T07:07:06.682Z,30.10
2022-08-10T07:09:37.495Z,30.20
2022-08-10T07:12:09.063Z,30.40
2022-08-10T07:14:42.512Z,30.70
2022-08-10T07:17:16.123Z,30.80
2022-08-10T07:19:49.647Z,30.90
2022-08-10T07:23:50.720Z,31.00
2022-08-10T07:25:07.370Z,31.10
2022-08-10T07:27:59.268Z,31.00
2022-08-10T07:30:22.277Z,31.10
2022-08-10T07:32:52.448Z,30.90
2022-08-10T07:35:22.087Z,31.10
2022-08-10T07:37:51.879Z,31.20
2022-08-10T07:40:21.008Z,31.30
2022-08-10T07:42:52.216Z,31.30
2022-08-10T07:45:19.177Z,31.30
2022-08-10T07:47:55.528Z,31.40
2022-08-10T07:50:25.134Z,31.50
2022-08-10T07:52:55.512Z,31.60
2022-08-10T07:56:05.687Z,31.70
2022-08-10T07:58:11.374Z,31.70
2022-08-10T08:00:39.916Z,31.70
2022-08-10T08:03:09.292Z,31.80
2022-08-10T08:05:59.204Z,32.00
2022-08-10T08:08:23.878Z,32.10
2022-08-10T08:10:51.460Z,32.00
2022-08-10T08:13:21.828Z,31.90
2022-08-10T08:16:20.481Z,31.70
2022-08-10T08:18:39.712Z,31.60
2022-08-10T08:21:16.063Z,31.50
2022-08-10T08:24:05.992Z,31.60
2022-08-10T08:26:49.296Z,31.60
2022-08-10T08:29:20.079Z,31.50
2022-08-10T08:32:00.846Z,31.40
2022-08-10T08:34:34.326Z,31.40
2022-08-10T08:37:02.590Z,31.60
2022-08-10T08:39:31.928Z,32.00
2022-08-10T08:42:36.362Z,32.20
2022-08-10T08:45:25.255Z,32.30
2022-08-10T08:48:19.371Z,32.30
2022-08-10T08:50:56.732Z,32.30
2022-08-10T08:54:02.748Z,32.40
2022-08-10T08:56:52.418Z,32.50
2022-08-10T08:59:40.951Z,32.40
2022-08-10T09:02:33.878Z,32.30
2022-08-10T09:06:00.243Z,32.10
2022-08-10T09:08:46.244Z,32.00
2022-08-10T09:11:45.706Z,31.90
2022-08-10T09:14:30.602Z,32.00
2022-08-10T09:17:12.213Z,32.00
2022-08-10T09:19:58.190Z,32.00
2022-08-10T09:22:43.166Z,31.80
2022-08-10T09:25:18.742Z,31.70
2022-08-10T09:27:49.607Z,31.80
2022-08-10T09:30:28.390Z,31.80
2022-08-10T09:36:22.445Z,31.80
2022-08-10T09:36:33.209Z,31.80
2022-08-10T09:40:56.459Z,31.70
2022-08-10T09:42:32.178Z,31.70
2022-08-10T09:45:40.103Z,31.70
2022-08-10T09:48:22.719Z,31.60
2022-08-10T09:54:04.474Z,31.40
2022-08-10T09:57:07.164Z,31.30
2022-08-10T10:00:00.509Z,31.30
2022-08-10T10:02:52.615Z,31.30
2022-08-10T10:05:25.532Z,31.30
2022-08-10T10:08:10.923Z,31.30
2022-08-10T10:11:07.649Z,31.40
2022-08-10T10:14:12.309Z,31.40
2022-08-10T10:17:00.943Z,31.40
2022-08-10T10:19:40.904Z,31.50
2022-08-10T10:22:14.394Z,31.40
2022-08-10T10:25:21.799Z,31.50
2022-08-10T10:28:13.374Z,31.40
2022-08-10T10:30:57.795Z,31.40
2022-08-10T10:34:32.099Z,31.40
2022-08-10T10:37:01.453Z,31.30
2022-08-10T10:39:29.010Z,31.30
2022-08-10T10:42:34.943Z,31.30
2022-08-10T10:45:15.798Z,31.40
2022-08-10T10:48:00.964Z,31.50
2022-08-10T10:50:38.239Z,31.50
2022-08-10T10:53:45.754Z,31.60
2022-08-10T10:56:39.841Z,31.60
2022-08-10T10:59:55.592Z,31.50
2022-08-10T11:02:38.969Z,31.40
2022-08-10T11:05:47.927Z,31.40
2022-08-10T11:11:05.828Z,31.60
2022-08-10T11:14:26.843Z,31.60
2022-08-10T11:16:37.466Z,31.60
2022-08-10T11:19:04.149Z,31.70
2022-08-10T11:21:43.173Z,31.70
2022-08-10T11:24:48.051Z,31.80
2022-08-10T11:27:29.130Z,31.60
2022-08-10T11:30:29.117Z,31.40
2022-08-10T11:33:15.191Z,31.40
2022-08-10T11:36:07.352Z,31.60
2022-08-10T11:39:13.050Z,31.60
2022-08-10T11:42:09.451Z,31.70
2022-08-10T11:44:37.120Z,31.90
2022-08-10T11:47:39.284Z,32.00
2022-08-10T11:50:16.143Z,31.90
2022-08-10T11:53:09.046Z,32.00
2022-08-10T11:55:36.607Z,32.10
2022-08-10T11:58:31.384Z,32.10
2022-08-10T12:01:06.428Z,32.20
2022-08-10T12:03:36.362Z,32.10
2022-08-10T12:06:05.829Z,32.00
2022-08-10T12:10:07.804Z,32.00
2022-08-10T12:11:26.723Z,32.00
2022-08-10T12:14:20.931Z,32.00
2022-08-10T12:16:52.601Z,32.20
2022-08-10T12:19:29.132Z,32.30
2022-08-10T12:22:06.489Z,32.20
2022-08-10T12:24:49.537Z,32.20
2022-08-10T12:27:31.097Z,32.20
2022-08-10T12:30:09.935Z,32.20
2022-08-10T12:32:39.691Z,32.10
2022-08-10T12:35:22.022Z,32.20
2022-08-10T12:38:21.629Z,32.30
2022-08-10T12:40:56.001Z,32.30
2022-08-10T12:44:06.843Z,32.30
2022-08-10T12:46:31.832Z,32.30
2022-08-10T12:49:36.445Z,32.30
2022-08-10T12:52:29.131Z,32.30
2022-08-10T12:54:59.905Z,32.40
2022-08-10T12:57:28.395Z,32.40
2022-08-10T13:00:01.450Z,32.40
2022-08-10T13:02:32.745Z,32.50
2022-08-10T13:05:03.187Z,32.50
2022-08-10T13:08:25.541Z,32.60
2022-08-10T13:10:23.145Z,32.80
2022-08-10T13:12:54.547Z,32.80
2022-08-10T13:15:50.009Z,32.90
2022-08-10T13:18:24.960Z,33.10
2022-08-10T13:20:54.890Z,33.20
2022-08-10T13:23:27.351Z,33.30
2022-08-10T13:25:58.119Z,33.20
2022-08-10T13:28:45.489Z,33.20
2022-08-10T13:31:21.642Z,33.20
2022-08-10T13:34:42.742Z,33.30
2022-08-10T13:37:09.239Z,33.30
2022-08-10T13:39:59.857Z,33.10
2022-08-10T13:42:32.434Z,33.00
2022-08-10T13:45:12.198Z,33.10
2022-08-10T13:47:48.692Z,33.10
2022-08-10T13:50:33.617Z,33.20
2022-08-10T13:53:14.406Z,33.20
2022-08-10T13:55:48.702Z,33.10
2022-08-10T13:58:38.037Z,33.10
2022-08-10T14:01:23.394Z,33.10
2022-08-10T14:03:52.929Z,33.00
2022-08-10T14:06:23.456Z,33.10
2022-08-10T14:09:01.617Z,33.10
2022-08-10T14:11:30.605Z,33.00
2022-08-10T14:14:18.543Z,33.00
2022-08-10T14:16:46.467Z,33.10
2022-08-10T14:19:18.935Z,33.10
2022-08-10T14:21:46.853Z,33.30
2022-08-10T14:24:21.840Z,33.30
2022-08-10T14:26:49.915Z,33.40
2022-08-10T14:29:20.141Z,33.50
2022-08-10T14:32:01.855Z,33.40
2022-08-10T14:36:15.373Z,33.30
2022-08-10T14:37:38.011Z,33.30
2022-08-10T14:40:17.240Z,33.30
2022-08-10T14:43:00.189Z,33.20
2022-08-10T14:45:31.401Z,33.20
2022-08-10T14:48:07.198Z,33.20
2022-08-10T14:50:35.483Z,33.00
2022-08-10T14:53:14.841Z,32.90
2022-08-10T14:55:59.652Z,33.00
2022-08-10T14:58:38.476Z,33.10
2022-08-10T15:01:07.862Z,33.20
2022-08-10T15:03:59.042Z,33.10
2022-08-10T15:06:30.210Z,33.10
2022-08-10T15:09:19.890Z,33.00
2022-08-10T15:12:13.992Z,33.10
2022-08-10T15:14:43.707Z,33.10
2022-08-10T15:17:13.750Z,33.10
2022-08-10T15:20:03.512Z,33.20
2022-08-10T15:22:38.615Z,33.20
2022-08-10T15:25:18.780Z,33.20
2022-08-10T15:27:54.634Z,33.20
2022-08-10T15:30:30.258Z,33.20
2022-08-10T15:33:57.709Z,33.20
2022-08-10T15:36:30.396Z,33.10
2022-08-10T15:39:02.518Z,33.00
2022-08-10T15:41:58.174Z,32.90
2022-08-10T15:44:37.472Z,32.80
2022-08-10T15:47:25.635Z,32.60
2022-08-10T15:50:19.752Z,32.60
2022-08-10T15:53:16.663Z,32.60
2022-08-10T15:55:56.743Z,32.60
2022-08-10T15:58:40.420Z,32.60
2022-08-10T16:02:13.969Z,32.50
2022-08-10T16:04:31.747Z,32.50
2022-08-10T16:07:09.052Z,32.40
2022-08-10T16:10:22.990Z,32.40
2022-08-10T16:12:34.421Z,32.30
2022-08-10T16:15:11.084Z,32.30
2022-08-10T16:17:54.889Z,32.30
2022-08-10T16:20:33.234Z,32.10
2022-08-10T16:23:26.190Z,32.20
2022-08-10T16:26:14.581Z,32.20
2022-08-10T16:28:51.377Z,32.10
2022-08-10T16:31:21.482Z,32.10
2022-08-10T16:33:55.120Z,31.90
2022-08-10T16:36:32.072Z,31.90
2022-08-10T16:39:00.700Z,31.90
2022-08-10T16:42:02.680Z,31.80
2022-08-10T16:44:18.782Z,31.80
2022-08-10T16:46:46.345Z,31.80
2022-08-10T16:49:17.978Z,31.70
2022-08-10T16:51:48.073Z,31.80
2022-08-10T16:54:22.398Z,31.70
2022-08-10T16:56:53.264Z,31.60
2022-08-10T16:59:24.175Z,31.50
2022-08-10T17:01:54.164Z,31.50
2022-08-10T17:04:23.529Z,31.50
2022-08-10T17:06:58.703Z,31.40
2022-08-10T17:09:37.460Z,31.40
2022-08-10T17:12:11.576Z,31.30
2022-08-10T17:14:41.135Z,31.30
2022-08-10T17:17:13.895Z,31.20
2022-08-10T17:19:47.351Z,31.10
2022-08-10T17:22:17.420Z,31.10
2022-08-10T17:24:52.914Z,31.00
2022-08-10T17:28:03.775Z,31.00
2022-08-10T17:30:16.111Z,31.00
2022-08-10T17:33:04.432Z,30.90
2022-08-10T17:35:34.704Z,30.80
2022-08-10T17:38:23.545Z,30.60
2022-08-10T17:41:12.538Z,30.50
2022-08-10T17:44:00.830Z,30.50
2022-08-10T17:46:32.765Z,30.50
2022-08-10T17:49:04.628Z,30.60
2022-08-10T17:51:32.956Z,30.50
2022-08-10T17:54:02.001Z,30.40
2022-08-10T17:56:33.545Z,30.30
2022-08-10T17:59:08.497Z,30.10
2022-08-10T18:02:01.706Z,30.00
2022-08-10T18:04:33.039Z,29.80
2022-08-10T18:07:03.434Z,29.60
2022-08-10T18:09:41.275Z,29.50
2022-08-10T18:12:19.105Z,29.40
2022-08-10T18:14:49.911Z,29.20
2022-08-10T18:17:25.400Z,29.10
2022-08-10T18:19:56.641Z,29.00
2022-08-10T18:22:24.884Z,28.90
2022-08-10T18:24:53.077Z,28.80
2022-08-10T18:27:20.720Z,28.70
2022-08-10T18:29:51.740Z,28.70
2022-08-10T18:32:21.657Z,28.80
2022-08-10T18:34:52.725Z,28.70
2022-08-10T18:37:23.285Z,28.60
2022-08-10T18:39:54.398Z,28.50
2022-08-10T18:42:39.252Z,28.30
2022-08-10T18:45:13.474Z,28.20
2022-08-10T18:47:59.684Z,28.00
2022-08-10T18:50:50.507Z,27.90
2022-08-10T18:53:35.751Z,27.70
2022-08-10T18:56:36.013Z,27.60
2022-08-10T18:59:30.507Z,27.40
2022-08-10T19:02:13.211Z,27.20
2022-08-10T19:05:01.237Z,27.10
2022-08-10T19:07:37.157Z,27.00
2022-08-10T19:10:17.147Z,26.80
2022-08-10T19:13:20.925Z,26.60
2022-08-10T19:16:10.252Z,26.50
2022-08-10T19:19:16.364Z,26.40
2022-08-10T19:22:01.107Z,26.30
2022-08-10T19:25:01.856Z,26.10
2022-08-10T19:27:50.411Z,26.10
2022-08-10T19:30:19.214Z,26.00
2022-08-10T19:33:07.295Z,25.90
2022-08-10T19:36:05.447Z,25.80
2022-08-10T19:38:49.737Z,25.70
2022-08-10T19:41:32.847Z,25.60
2022-08-10T19:44:11.760Z,25.50
2022-08-10T19:46:47.253Z,25.40
2022-08-10T19:49:39.947Z,25.30
2022-08-10T19:52:25.561Z,25.30
2022-08-10T19:55:07.507Z,25.20
2022-08-10T19:57:53.827Z,25.10
2022-08-10T20:00:26.930Z,25.00
2022-08-10T20:03:18.197Z,24.90
2022-08-10T20:06:18.054Z,24.80
2022-08-10T20:08:53.314Z,24.70
2022-08-10T20:11:47.670Z,24.60
2022-08-10T20:14:27.559Z,24.50
2022-08-10T20:17:02.416Z,24.50
2022-08-10T20:19:53.154Z,24.40
2022-08-10T20:22:29.801Z,24.30
2022-08-10T20:25:20.811Z,24.20
2022-08-10T20:27:59.132Z,24.10
2022-08-10T20:30:31.383Z,24.10
2022-08-10T20:33:10.362Z,24.10
2022-08-10T20:36:02.707Z,24.00
2022-08-10T20:38:35.325Z,24.00
2022-08-10T20:41:46.458Z,23.90
2022-08-10T20:44:19.599Z,23.80
2022-08-10T20:46:59.204Z,23.80
2022-08-10T20:49:44.961Z,23.70
2022-08-10T20:52:13.803Z,23.70
2022-08-10T20:54:52.190Z,23.50
2022-08-10T20:57:55.252Z,23.50
2022-08-10T21:00:30.521Z,23.40
2022-08-10T21:03:06.833Z,23.40
2022-08-10T21:06:02.034Z,23.30
2022-08-10T21:08:51.880Z,23.30
2022-08-10T21:11:24.838Z,23.10
2022-08-10T21:14:02.742Z,23.10
2022-08-10T21:16:48.289Z,23.10
2022-08-10T21:19:52.261Z,22.90
2022-08-10T21:22:29.388Z,22.90
2022-08-10T21:25:03.733Z,22.80
2022-08-10T21:28:00.896Z,22.70
2022-08-10T21:30:51.103Z,22.70
2022-08-10T21:33:42.105Z,22.60
2022-08-10T21:36:17.207Z,22.50
2022-08-10T21:38:52.275Z,22.40
2022-08-10T21:42:02.843Z,22.30
2022-08-10T21:45:12.863Z,22.30
2022-08-10T21:48:34.384Z,22.10
2022-08-10T21:52:01.162Z,22.00
2022-08-10T21:54:52.290Z,21.90
2022-08-10T21:57:46.986Z,21.80
2022-08-10T22:03:39.956Z,21.60
2022-08-10T22:06:28.086Z,21.60
2022-08-10T22:09:23.116Z,21.60
2022-08-10T22:12:31.980Z,21.50
2022-08-10T22:15:42.528Z,21.40
2022-08-10T22:18:33.455Z,21.30
2022-08-10T22:21:45.372Z,21.30
2022-08-10T22:24:52.656Z,21.30
2022-08-10T22:27:54.839Z,21.20
2022-08-10T22:30:57.856Z,21.10
2022-08-10T22:34:08.726Z,21.10
2022-08-10T22:37:02.908Z,21.00
2022-08-10T22:40:12.794Z,21.00
2022-08-10T22:43:10.582Z,20.90
2022-08-10T22:46:06.615Z,20.90
2022-08-10T22:48:59.440Z,20.90
2022-08-10T22:51:54.164Z,20.80
2022-08-10T22:54:52.796Z,20.80
2022-08-10T22:57:38.534Z,20.80
2022-08-10T23:00:15.135Z,20.70
2022-08-10T23:02:56.507Z,20.70
2022-08-10T23:05:34.270Z,20.70
2022-08-10T23:08:29.748Z,20.60
2022-08-10T23:11:06.450Z,20.60
2022-08-10T23:13:40.333Z,20.60
2022-08-10T23:16:38.994Z,20.60
2022-08-10T23:19:24.356Z,20.50
2022-08-10T23:22:06.115Z,20.50
2022-08-10T23:24:51.705Z,20.40
2022-08-10T23:27:38.457Z,20.40
2022-08-10T23:30:18.060Z,20.30
2022-08-10T23:32:49.376Z,20.30
2022-08-10T23:36:31.443Z,20.20
2022-08-10T23:38:07.362Z,20.30
2022-08-10T23:40:36.392Z,20.10
2022-08-10T23:43:04.756Z,20.00
2022-08-10T23:45:52.406Z,20.00
2022-08-10T23:48:26.146Z,20.00
2022-08-10T23:51:02.570Z,19.90
2022-08-10T23:53:36.094Z,19.90
2022-08-10T23:56:12.993Z,19.90
2022-08-10T23:58:47.144Z,19.80
